sensor_id;sensor_type;location;lat;lon;timestamp;temperature;humidity
73133;DHT22;61320;52.008;4.530;2023-08-20T00:00:24;20.32;70.83
73133;DHT22;61320;52.008;4.530;2023-08-20T00:03:19;20.29;70.82
73133;DHT22;61320;52.008;4.530;2023-08-20T00:05:43;20.30;71.06
73133;DHT22;61320;52.008;4.530;2023-08-20T00:08:09;20.30;71.06
73133;DHT22;61320;52.008;4.530;2023-08-20T00:10:34;20.32;71.05
73133;DHT22;61320;52.008;4.530;2023-08-20T00:13:00;20.35;70.95
73133;DHT22;61320;52.008;4.530;2023-08-20T00:15:26;20.36;71.00
73133;DHT22;61320;52.008;4.530;2023-08-20T00:17:53;20.39;70.71
73133;DHT22;61320;52.008;4.530;2023-08-20T00:20:19;20.39;70.76
73133;DHT22;61320;52.008;4.530;2023-08-20T00:22:45;20.42;70.75
73133;DHT22;61320;52.008;4.530;2023-08-20T00:25:15;20.39;70.71
73133;DHT22;61320;52.008;4.530;2023-08-20T00:27:42;20.37;70.85
73133;DHT22;61320;52.008;4.530;2023-08-20T00:30:11;20.35;71.16
73133;DHT22;61320;52.008;4.530;2023-08-20T00:32:37;20.33;70.86
73133;DHT22;61320;52.008;4.530;2023-08-20T00:35:03;20.36;70.97
73133;DHT22;61320;52.008;4.530;2023-08-20T00:37:30;20.35;71.12
73133;DHT22;61320;52.008;4.530;2023-08-20T00:39:56;20.36;71.48
73133;DHT22;61320;52.008;4.530;2023-08-20T00:42:22;20.36;71.39
73133;DHT22;61320;52.008;4.530;2023-08-20T00:44:51;20.37;71.33
73133;DHT22;61320;52.008;4.530;2023-08-20T00:47:18;20.39;71.24
73133;DHT22;61320;52.008;4.530;2023-08-20T00:49:45;20.39;71.40
73133;DHT22;61320;52.008;4.530;2023-08-20T00:52:12;20.39;71.38
73133;DHT22;61320;52.008;4.530;2023-08-20T00:54:45;20.40;71.42
73133;DHT22;61320;52.008;4.530;2023-08-20T00:57:13;20.39;71.17
73133;DHT22;61320;52.008;4.530;2023-08-20T00:59:40;20.43;71.05
73133;DHT22;61320;52.008;4.530;2023-08-20T01:02:07;20.43;71.09
73133;DHT22;61320;52.008;4.530;2023-08-20T01:04:33;20.39;71.18
73133;DHT22;61320;52.008;4.530;2023-08-20T01:09:50;20.36;71.45
73133;DHT22;61320;52.008;4.530;2023-08-20T01:12:20;20.39;71.63
73133;DHT22;61320;52.008;4.530;2023-08-20T01:14:46;20.36;71.63
73133;DHT22;61320;52.008;4.530;2023-08-20T01:17:11;20.37;71.68
73133;DHT22;61320;52.008;4.530;2023-08-20T01:19:37;20.36;71.81
73133;DHT22;61320;52.008;4.530;2023-08-20T01:22:36;20.36;71.75
73133;DHT22;61320;52.008;4.530;2023-08-20T01:28:26;20.35;71.89
73133;DHT22;61320;52.008;4.530;2023-08-20T01:30:54;20.33;71.81
73133;DHT22;61320;52.008;4.530;2023-08-20T01:33:21;20.32;72.02
73133;DHT22;61320;52.008;4.530;2023-08-20T01:35:47;20.29;72.01
73133;DHT22;61320;52.008;4.530;2023-08-20T01:38:12;20.29;72.03
73133;DHT22;61320;52.008;4.530;2023-08-20T01:40:38;20.28;72.08
73133;DHT22;61320;52.008;4.530;2023-08-20T01:43:03;20.22;71.98
73133;DHT22;61320;52.008;4.530;2023-08-20T01:45:29;20.16;72.33
73133;DHT22;61320;52.008;4.530;2023-08-20T01:47:54;20.15;72.35
73133;DHT22;61320;52.008;4.530;2023-08-20T01:50:20;20.14;72.28
73133;DHT22;61320;52.008;4.530;2023-08-20T01:52:46;20.09;72.58
73133;DHT22;61320;52.008;4.530;2023-08-20T01:55:11;20.04;72.72
73133;DHT22;61320;52.008;4.530;2023-08-20T01:57:37;20.01;72.54
73133;DHT22;61320;52.008;4.530;2023-08-20T02:00:03;19.99;72.59
73133;DHT22;61320;52.008;4.530;2023-08-20T02:02:33;19.92;72.90
73133;DHT22;61320;52.008;4.530;2023-08-20T02:05:00;19.89;73.08
73133;DHT22;61320;52.008;4.530;2023-08-20T02:07:25;19.85;73.04
73133;DHT22;61320;52.008;4.530;2023-08-20T02:09:50;19.84;73.04
73133;DHT22;61320;52.008;4.530;2023-08-20T02:12:17;19.79;73.12
73133;DHT22;61320;52.008;4.530;2023-08-20T02:14:43;19.74;73.32
73133;DHT22;61320;52.008;4.530;2023-08-20T02:17:08;19.73;73.18
73133;DHT22;61320;52.008;4.530;2023-08-20T02:19:34;19.70;73.49
73133;DHT22;61320;52.008;4.530;2023-08-20T02:21:59;19.68;73.59
73133;DHT22;61320;52.008;4.530;2023-08-20T02:24:25;19.63;73.85
73133;DHT22;61320;52.008;4.530;2023-08-20T02:29:16;19.61;73.71
73133;DHT22;61320;52.008;4.530;2023-08-20T02:31:41;19.60;74.02
73133;DHT22;61320;52.008;4.530;2023-08-20T02:34:07;19.57;74.04
73133;DHT22;61320;52.008;4.530;2023-08-20T02:36:32;19.54;74.16
73133;DHT22;61320;52.008;4.530;2023-08-20T02:41:23;19.54;73.84
73133;DHT22;61320;52.008;4.530;2023-08-20T02:43:49;19.54;73.95
73133;DHT22;61320;52.008;4.530;2023-08-20T02:46:14;19.51;74.04
73133;DHT22;61320;52.008;4.530;2023-08-20T02:48:40;19.50;74.22
73133;DHT22;61320;52.008;4.530;2023-08-20T02:51:05;19.49;74.32
73133;DHT22;61320;52.008;4.530;2023-08-20T02:53:31;19.50;74.56
73133;DHT22;61320;52.008;4.530;2023-08-20T02:55:56;19.47;74.41
73133;DHT22;61320;52.008;4.530;2023-08-20T02:58:22;19.50;74.57
73133;DHT22;61320;52.008;4.530;2023-08-20T03:00:48;19.46;74.53
73133;DHT22;61320;52.008;4.530;2023-08-20T03:03:13;19.47;74.73
73133;DHT22;61320;52.008;4.530;2023-08-20T03:05:39;19.50;74.84
73133;DHT22;61320;52.008;4.530;2023-08-20T03:08:05;19.50;74.91
73133;DHT22;61320;52.008;4.530;2023-08-20T03:10:32;19.53;74.82
73133;DHT22;61320;52.008;4.530;2023-08-20T03:12:59;19.51;74.49
73133;DHT22;61320;52.008;4.530;2023-08-20T03:15:24;19.54;74.57
73133;DHT22;61320;52.008;4.530;2023-08-20T03:17:50;19.53;74.74
73133;DHT22;61320;52.008;4.530;2023-08-20T03:20:15;19.50;74.62
73133;DHT22;61320;52.008;4.530;2023-08-20T03:22:41;19.51;74.70
73133;DHT22;61320;52.008;4.530;2023-08-20T03:25:07;19.49;74.54
73133;DHT22;61320;52.008;4.530;2023-08-20T03:27:32;19.46;74.60
73133;DHT22;61320;52.008;4.530;2023-08-20T03:29:58;19.45;74.81
73133;DHT22;61320;52.008;4.530;2023-08-20T03:32:23;19.41;74.89
73133;DHT22;61320;52.008;4.530;2023-08-20T03:34:50;19.40;74.73
73133;DHT22;61320;52.008;4.530;2023-08-20T03:37:15;19.37;75.06
73133;DHT22;61320;52.008;4.530;2023-08-20T03:39:41;19.34;75.17
73133;DHT22;61320;52.008;4.530;2023-08-20T03:42:07;19.30;75.07
73133;DHT22;61320;52.008;4.530;2023-08-20T03:44:32;19.27;74.48
73133;DHT22;61320;52.008;4.530;2023-08-20T03:46:57;19.26;74.96
73133;DHT22;61320;52.008;4.530;2023-08-20T03:49:23;19.23;75.06
73133;DHT22;61320;52.008;4.530;2023-08-20T04:01:30;19.09;75.13
73133;DHT22;61320;52.008;4.530;2023-08-20T04:03:56;19.06;74.85
73133;DHT22;61320;52.008;4.530;2023-08-20T04:06:22;19.02;75.04
73133;DHT22;61320;52.008;4.530;2023-08-20T04:08:47;19.00;75.36
73133;DHT22;61320;52.008;4.530;2023-08-20T04:11:13;18.96;75.46
73133;DHT22;61320;52.008;4.530;2023-08-20T04:13:38;18.94;75.44
73133;DHT22;61320;52.008;4.530;2023-08-20T04:16:05;18.94;75.38
73133;DHT22;61320;52.008;4.530;2023-08-20T04:18:30;18.94;75.67
73133;DHT22;61320;52.008;4.530;2023-08-20T04:20:56;18.92;75.86
73133;DHT22;61320;52.008;4.530;2023-08-20T04:23:22;18.88;75.67
73133;DHT22;61320;52.008;4.530;2023-08-20T04:25:48;18.88;75.48
73133;DHT22;61320;52.008;4.530;2023-08-20T04:28:13;18.89;75.57
73133;DHT22;61320;52.008;4.530;2023-08-20T04:30:39;18.88;75.48
73133;DHT22;61320;52.008;4.530;2023-08-20T04:33:05;18.88;75.63
73133;DHT22;61320;52.008;4.530;2023-08-20T04:35:30;18.88;75.65
73133;DHT22;61320;52.008;4.530;2023-08-20T04:37:56;18.87;75.68
73133;DHT22;61320;52.008;4.530;2023-08-20T04:40:21;18.85;75.80
73133;DHT22;61320;52.008;4.530;2023-08-20T04:42:47;18.84;75.98
73133;DHT22;61320;52.008;4.530;2023-08-20T04:45:12;18.85;76.07
73133;DHT22;61320;52.008;4.530;2023-08-20T04:47:38;18.84;75.91
73133;DHT22;61320;52.008;4.530;2023-08-20T04:50:04;18.82;75.80
73133;DHT22;61320;52.008;4.530;2023-08-20T04:52:32;18.81;75.69
73133;DHT22;61320;52.008;4.530;2023-08-20T04:54:58;18.81;75.75
73133;DHT22;61320;52.008;4.530;2023-08-20T04:57:24;18.78;75.91
73133;DHT22;61320;52.008;4.530;2023-08-20T04:59:49;18.78;76.30
73133;DHT22;61320;52.008;4.530;2023-08-20T05:02:15;18.75;76.32
73133;DHT22;61320;52.008;4.530;2023-08-20T05:04:41;18.73;76.24
73133;DHT22;61320;52.008;4.530;2023-08-20T05:07:06;18.72;76.28
73133;DHT22;61320;52.008;4.530;2023-08-20T05:09:33;18.71;76.35
73133;DHT22;61320;52.008;4.530;2023-08-20T05:11:58;18.72;76.06
73133;DHT22;61320;52.008;4.530;2023-08-20T05:14:24;18.72;76.31
73133;DHT22;61320;52.008;4.530;2023-08-20T05:16:50;18.72;76.28
73133;DHT22;61320;52.008;4.530;2023-08-20T05:19:15;18.78;76.40
73133;DHT22;61320;52.008;4.530;2023-08-20T05:21:40;18.79;76.40
73133;DHT22;61320;52.008;4.530;2023-08-20T05:24:06;18.78;76.54
73133;DHT22;61320;52.008;4.530;2023-08-20T05:26:32;18.84;76.62
73133;DHT22;61320;52.008;4.530;2023-08-20T05:28:57;18.87;76.66
73133;DHT22;61320;52.008;4.530;2023-08-20T05:31:22;18.92;76.62
73133;DHT22;61320;52.008;4.530;2023-08-20T05:33:48;18.94;76.62
73133;DHT22;61320;52.008;4.530;2023-08-20T05:36:14;18.98;76.43
73133;DHT22;61320;52.008;4.530;2023-08-20T05:38:39;19.00;76.74
73133;DHT22;61320;52.008;4.530;2023-08-20T05:41:07;19.03;76.80
73133;DHT22;61320;52.008;4.530;2023-08-20T05:43:33;19.09;76.51
73133;DHT22;61320;52.008;4.530;2023-08-20T05:45:58;19.15;76.65
73133;DHT22;61320;52.008;4.530;2023-08-20T05:48:24;19.15;76.57
73133;DHT22;61320;52.008;4.530;2023-08-20T05:50:49;19.19;76.70
73133;DHT22;61320;52.008;4.530;2023-08-20T05:53:15;19.24;76.76
73133;DHT22;61320;52.008;4.530;2023-08-20T05:55:40;19.30;76.68
73133;DHT22;61320;52.008;4.530;2023-08-20T05:58:06;19.34;76.68
73133;DHT22;61320;52.008;4.530;2023-08-20T06:00:31;19.37;76.90
73133;DHT22;61320;52.008;4.530;2023-08-20T06:02:56;19.43;76.76
73133;DHT22;61320;52.008;4.530;2023-08-20T06:05:22;19.50;76.91
73133;DHT22;61320;52.008;4.530;2023-08-20T06:07:47;19.58;77.28
73133;DHT22;61320;52.008;4.530;2023-08-20T06:10:13;19.63;76.86
73133;DHT22;61320;52.008;4.530;2023-08-20T06:12:38;19.67;76.98
73133;DHT22;61320;52.008;4.530;2023-08-20T06:15:05;19.71;77.14
73133;DHT22;61320;52.008;4.530;2023-08-20T06:17:31;19.78;77.11
73133;DHT22;61320;52.008;4.530;2023-08-20T06:19:57;19.87;77.32
73133;DHT22;61320;52.008;4.530;2023-08-20T06:22:23;19.89;77.08
73133;DHT22;61320;52.008;4.530;2023-08-20T06:24:48;19.97;77.04
73133;DHT22;61320;52.008;4.530;2023-08-20T06:27:13;20.04;77.11
73133;DHT22;61320;52.008;4.530;2023-08-20T06:29:39;20.12;76.92
73133;DHT22;61320;52.008;4.530;2023-08-20T06:32:04;20.22;76.88
73133;DHT22;61320;52.008;4.530;2023-08-20T06:34:30;20.26;76.62
73133;DHT22;61320;52.008;4.530;2023-08-20T06:36:56;20.33;76.55
73133;DHT22;61320;52.008;4.530;2023-08-20T06:39:21;20.35;76.65
73133;DHT22;61320;52.008;4.530;2023-08-20T06:41:47;20.39;76.34
73133;DHT22;61320;52.008;4.530;2023-08-20T06:44:12;20.49;76.28
73133;DHT22;61320;52.008;4.530;2023-08-20T06:46:38;20.55;75.95
73133;DHT22;61320;52.008;4.530;2023-08-20T06:49:03;20.57;76.01
73133;DHT22;61320;52.008;4.530;2023-08-20T06:51:29;20.57;76.15
73133;DHT22;61320;52.008;4.530;2023-08-20T06:53:55;20.63;76.06
73133;DHT22;61320;52.008;4.530;2023-08-20T06:56:21;20.73;75.91
73133;DHT22;61320;52.008;4.530;2023-08-20T06:58:47;20.74;75.72
73133;DHT22;61320;52.008;4.530;2023-08-20T07:01:12;20.76;75.97
73133;DHT22;61320;52.008;4.530;2023-08-20T07:03:43;20.83;75.49
73133;DHT22;61320;52.008;4.530;2023-08-20T07:06:10;20.84;75.47
73133;DHT22;61320;52.008;4.530;2023-08-20T07:08:37;20.90;75.49
73133;DHT22;61320;52.008;4.530;2023-08-20T07:11:05;20.94;75.51
73133;DHT22;61320;52.008;4.530;2023-08-20T07:13:30;20.98;75.23
73133;DHT22;61320;52.008;4.530;2023-08-20T07:18:22;21.15;75.10
73133;DHT22;61320;52.008;4.530;2023-08-20T07:20:47;21.14;74.92
73133;DHT22;61320;52.008;4.530;2023-08-20T07:23:13;21.17;74.82
73133;DHT22;61320;52.008;4.530;2023-08-20T07:25:40;21.20;74.88
73133;DHT22;61320;52.008;4.530;2023-08-20T07:28:06;21.20;74.88
73133;DHT22;61320;52.008;4.530;2023-08-20T07:30:32;21.28;74.52
73133;DHT22;61320;52.008;4.530;2023-08-20T07:32:57;21.35;74.65
73133;DHT22;61320;52.008;4.530;2023-08-20T07:35:24;21.42;74.33
73133;DHT22;61320;52.008;4.530;2023-08-20T07:37:49;21.45;73.84
73133;DHT22;61320;52.008;4.530;2023-08-20T07:40:15;21.45;73.53
73133;DHT22;61320;52.008;4.530;2023-08-20T07:42:40;21.51;73.19
73133;DHT22;61320;52.008;4.530;2023-08-20T07:45:07;21.55;72.97
73133;DHT22;61320;52.008;4.530;2023-08-20T07:47:36;21.52;73.13
73133;DHT22;61320;52.008;4.530;2023-08-20T07:50:02;21.56;73.33
73133;DHT22;61320;52.008;4.530;2023-08-20T07:52:28;21.62;73.07
73133;DHT22;61320;52.008;4.530;2023-08-20T07:54:53;21.65;73.27
73133;DHT22;61320;52.008;4.530;2023-08-20T07:57:19;21.66;73.01
73133;DHT22;61320;52.008;4.530;2023-08-20T07:59:44;21.69;72.72
73133;DHT22;61320;52.008;4.530;2023-08-20T08:02:10;21.73;73.09
73133;DHT22;61320;52.008;4.530;2023-08-20T08:04:35;21.75;72.99
73133;DHT22;61320;52.008;4.530;2023-08-20T08:07:02;21.80;72.69
73133;DHT22;61320;52.008;4.530;2023-08-20T08:09:29;21.86;72.47
73133;DHT22;61320;52.008;4.530;2023-08-20T08:11:55;21.89;72.87
73133;DHT22;61320;52.008;4.530;2023-08-20T08:14:21;21.94;72.03
73133;DHT22;61320;52.008;4.530;2023-08-20T08:16:47;21.96;72.68
73133;DHT22;61320;52.008;4.530;2023-08-20T08:19:13;22.00;72.76
73133;DHT22;61320;52.008;4.530;2023-08-20T08:21:39;22.07;72.08
73133;DHT22;61320;52.008;4.530;2023-08-20T08:24:05;22.09;72.32
73133;DHT22;61320;52.008;4.530;2023-08-20T08:26:32;22.20;72.35
73133;DHT22;61320;52.008;4.530;2023-08-20T08:28:58;22.24;71.68
73133;DHT22;61320;52.008;4.530;2023-08-20T08:31:24;22.29;70.20
73133;DHT22;61320;52.008;4.530;2023-08-20T08:33:49;22.25;71.00
73133;DHT22;61320;52.008;4.530;2023-08-20T08:36:14;22.31;71.34
73133;DHT22;61320;52.008;4.530;2023-08-20T08:38:42;22.37;70.34
73133;DHT22;61320;52.008;4.530;2023-08-20T08:41:12;22.37;69.92
73133;DHT22;61320;52.008;4.530;2023-08-20T08:43:38;22.40;70.02
73133;DHT22;61320;52.008;4.530;2023-08-20T08:46:07;22.44;69.87
73133;DHT22;61320;52.008;4.530;2023-08-20T08:48:37;22.51;69.06
73133;DHT22;61320;52.008;4.530;2023-08-20T08:51:03;22.50;69.19
73133;DHT22;61320;52.008;4.530;2023-08-20T08:53:30;22.58;69.01
73133;DHT22;61320;52.008;4.530;2023-08-20T08:55:58;22.64;69.02
73133;DHT22;61320;52.008;4.530;2023-08-20T08:58:23;22.68;68.56
73133;DHT22;61320;52.008;4.530;2023-08-20T09:00:49;22.72;67.65
73133;DHT22;61320;52.008;4.530;2023-08-20T09:03:14;22.81;67.14
73133;DHT22;61320;52.008;4.530;2023-08-20T09:06:00;22.81;67.25
73133;DHT22;61320;52.008;4.530;2023-08-20T09:08:29;22.84;66.67
73133;DHT22;61320;52.008;4.530;2023-08-20T09:10:57;22.91;65.85
73133;DHT22;61320;52.008;4.530;2023-08-20T09:13:36;22.92;65.12
73133;DHT22;61320;52.008;4.530;2023-08-20T09:16:06;22.89;66.43
73133;DHT22;61320;52.008;4.530;2023-08-20T09:18:44;22.94;64.70
73133;DHT22;61320;52.008;4.530;2023-08-20T09:21:13;22.95;65.73
73133;DHT22;61320;52.008;4.530;2023-08-20T09:23:39;23.00;66.81
73133;DHT22;61320;52.008;4.530;2023-08-20T09:26:07;23.10;66.02
73133;DHT22;61320;52.008;4.530;2023-08-20T09:28:43;23.22;64.82
73133;DHT22;61320;52.008;4.530;2023-08-20T09:31:10;23.18;66.42
73133;DHT22;61320;52.008;4.530;2023-08-20T09:40:54;23.51;65.22
73133;DHT22;61320;52.008;4.530;2023-08-20T09:43:24;23.58;64.84
73133;DHT22;61320;52.008;4.530;2023-08-20T09:45:55;23.73;62.34
73133;DHT22;61320;52.008;4.530;2023-08-20T09:48:27;23.68;63.41
73133;DHT22;61320;52.008;4.530;2023-08-20T09:50:59;23.73;63.05
73133;DHT22;61320;52.008;4.530;2023-08-20T09:53:31;23.70;64.69
73133;DHT22;61320;52.008;4.530;2023-08-20T09:56:09;23.77;64.38
73133;DHT22;61320;52.008;4.530;2023-08-20T09:58:37;23.78;64.63
73133;DHT22;61320;52.008;4.530;2023-08-20T10:01:04;23.74;64.02
73133;DHT22;61320;52.008;4.530;2023-08-20T10:03:30;23.78;64.95
73133;DHT22;61320;52.008;4.530;2023-08-20T10:05:56;23.94;65.06
73133;DHT22;61320;52.008;4.530;2023-08-20T10:08:23;24.09;65.35
73133;DHT22;61320;52.008;4.530;2023-08-20T10:10:49;24.24;64.45
73133;DHT22;61320;52.008;4.530;2023-08-20T10:13:15;24.37;63.61
73133;DHT22;61320;52.008;4.530;2023-08-20T10:15:41;24.51;63.38
73133;DHT22;61320;52.008;4.530;2023-08-20T10:18:07;24.62;62.29
73133;DHT22;61320;52.008;4.530;2023-08-20T10:20:33;24.87;61.50
73133;DHT22;61320;52.008;4.530;2023-08-20T10:23:03;25.15;60.79
73133;DHT22;61320;52.008;4.530;2023-08-20T10:28:12;25.81;58.75
73133;DHT22;61320;52.008;4.530;2023-08-20T10:31:08;26.21;57.46
73133;DHT22;61320;52.008;4.530;2023-08-20T10:33:48;26.64;56.23
73133;DHT22;61320;52.008;4.530;2023-08-20T10:36:17;26.96;53.50
73133;DHT22;61320;52.008;4.530;2023-08-20T10:38:46;27.00;53.35
73133;DHT22;61320;52.008;4.530;2023-08-20T10:41:12;27.16;52.90
73133;DHT22;61320;52.008;4.530;2023-08-20T10:43:48;27.39;54.27
73133;DHT22;61320;52.008;4.530;2023-08-20T10:46:16;27.67;52.06
73133;DHT22;61320;52.008;4.530;2023-08-20T10:48:46;27.90;52.37
73133;DHT22;61320;52.008;4.530;2023-08-20T10:56:16;28.69;48.94
73133;DHT22;61320;52.008;4.530;2023-08-20T10:58:46;29.04;48.21
73133;DHT22;61320;52.008;4.530;2023-08-20T11:01:30;29.15;46.37
73133;DHT22;61320;52.008;4.530;2023-08-20T11:03:56;29.17;45.27
73133;DHT22;61320;52.008;4.530;2023-08-20T11:06:22;29.21;47.51
73133;DHT22;61320;52.008;4.530;2023-08-20T11:08:47;29.44;48.37
73133;DHT22;61320;52.008;4.530;2023-08-20T11:11:13;29.63;46.23
73133;DHT22;61320;52.008;4.530;2023-08-20T11:13:39;29.76;46.14
73133;DHT22;61320;52.008;4.530;2023-08-20T11:16:06;29.95;46.81
73133;DHT22;61320;52.008;4.530;2023-08-20T11:18:33;30.14;44.11
73133;DHT22;61320;52.008;4.530;2023-08-20T11:20:59;30.50;44.52
73133;DHT22;61320;52.008;4.530;2023-08-20T11:23:26;30.78;43.48
73133;DHT22;61320;52.008;4.530;2023-08-20T11:25:51;31.08;41.83
73133;DHT22;61320;52.008;4.530;2023-08-20T11:28:16;31.28;42.65
73133;DHT22;61320;52.008;4.530;2023-08-20T11:30:42;31.60;41.26
73133;DHT22;61320;52.008;4.530;2023-08-20T11:33:08;31.81;41.55
73133;DHT22;61320;52.008;4.530;2023-08-20T11:35:35;32.07;41.50
73133;DHT22;61320;52.008;4.530;2023-08-20T11:38:03;32.31;40.24
73133;DHT22;61320;52.008;4.530;2023-08-20T11:40:29;32.54;41.82
73133;DHT22;61320;52.008;4.530;2023-08-20T11:42:54;32.36;37.74
73133;DHT22;61320;52.008;4.530;2023-08-20T11:45:20;32.13;37.24
73133;DHT22;61320;52.008;4.530;2023-08-20T11:47:45;32.13;39.12
73133;DHT22;61320;52.008;4.530;2023-08-20T11:50:11;32.20;38.82
73133;DHT22;61320;52.008;4.530;2023-08-20T11:52:37;32.35;40.51
73133;DHT22;61320;52.008;4.530;2023-08-20T11:55:05;32.68;42.93
73133;DHT22;61320;52.008;4.530;2023-08-20T11:57:31;32.93;37.80
73133;DHT22;61320;52.008;4.530;2023-08-20T12:00:05;32.71;37.55
73133;DHT22;61320;52.008;4.530;2023-08-20T12:02:35;32.38;37.44
73133;DHT22;61320;52.008;4.530;2023-08-20T12:05:00;32.00;39.74
73133;DHT22;61320;52.008;4.530;2023-08-20T12:07:27;31.72;39.68
73133;DHT22;61320;52.008;4.530;2023-08-20T12:10:21;31.35;42.64
73133;DHT22;61320;52.008;4.530;2023-08-20T12:12:48;31.11;40.92
73133;DHT22;61320;52.008;4.530;2023-08-20T12:15:13;30.91;42.11
73133;DHT22;61320;52.008;4.530;2023-08-20T12:17:39;30.60;40.98
73133;DHT22;61320;52.008;4.530;2023-08-20T12:20:05;30.26;43.03
73133;DHT22;61320;52.008;4.530;2023-08-20T12:22:40;29.82;43.11
73133;DHT22;61320;52.008;4.530;2023-08-20T12:25:06;29.54;45.87
73133;DHT22;61320;52.008;4.530;2023-08-20T12:27:33;29.38;46.38
73133;DHT22;61320;52.008;4.530;2023-08-20T12:29:58;29.23;43.92
73133;DHT22;61320;52.008;4.530;2023-08-20T12:32:24;29.21;47.96
73133;DHT22;61320;52.008;4.530;2023-08-20T12:34:49;29.08;46.08
73133;DHT22;61320;52.008;4.530;2023-08-20T12:37:15;29.04;45.54
73133;DHT22;61320;52.008;4.530;2023-08-20T12:39:41;29.02;47.03
73133;DHT22;61320;52.008;4.530;2023-08-20T12:42:07;28.93;46.67
73133;DHT22;61320;52.008;4.530;2023-08-20T12:44:33;28.89;48.93
73133;DHT22;61320;52.008;4.530;2023-08-20T12:46:58;28.86;47.30
73133;DHT22;61320;52.008;4.530;2023-08-20T12:49:24;28.84;45.61
73133;DHT22;61320;52.008;4.530;2023-08-20T12:51:49;28.80;46.40
73133;DHT22;61320;52.008;4.530;2023-08-20T12:54:15;28.76;48.08
73133;DHT22;61320;52.008;4.530;2023-08-20T12:56:42;28.82;48.16
73133;DHT22;61320;52.008;4.530;2023-08-20T12:59:07;28.80;46.95
73133;DHT22;61320;52.008;4.530;2023-08-20T13:01:33;28.66;46.81
73133;DHT22;61320;52.008;4.530;2023-08-20T13:03:59;28.60;48.46
73133;DHT22;61320;52.008;4.530;2023-08-20T13:06:25;28.66;46.93
73133;DHT22;61320;52.008;4.530;2023-08-20T13:08:50;28.73;48.63
73133;DHT22;61320;52.008;4.530;2023-08-20T13:11:19;28.86;47.06
73133;DHT22;61320;52.008;4.530;2023-08-20T13:13:45;28.77;44.86
73133;DHT22;61320;52.008;4.530;2023-08-20T13:16:11;28.66;46.37
73133;DHT22;61320;52.008;4.530;2023-08-20T13:18:36;28.57;45.42
73133;DHT22;61320;52.008;4.530;2023-08-20T13:21:02;28.49;45.64
73133;DHT22;61320;52.008;4.530;2023-08-20T13:23:29;28.48;47.16
73133;DHT22;61320;52.008;4.530;2023-08-20T13:25:55;28.44;46.63
73133;DHT22;61320;52.008;4.530;2023-08-20T13:28:20;28.42;46.10
73133;DHT22;61320;52.008;4.530;2023-08-20T13:30:46;28.46;47.35
73133;DHT22;61320;52.008;4.530;2023-08-20T13:33:13;28.59;46.77
73133;DHT22;61320;52.008;4.530;2023-08-20T13:35:40;28.62;46.14
73133;DHT22;61320;52.008;4.530;2023-08-20T13:38:06;28.67;47.89
73133;DHT22;61320;52.008;4.530;2023-08-20T13:40:31;28.70;46.91
73133;DHT22;61320;52.008;4.530;2023-08-20T13:42:56;28.65;47.98
73133;DHT22;61320;52.008;4.530;2023-08-20T13:45:22;28.57;47.86
73133;DHT22;61320;52.008;4.530;2023-08-20T13:47:47;28.57;49.49
73133;DHT22;61320;52.008;4.530;2023-08-20T13:50:13;28.57;47.61
73133;DHT22;61320;52.008;4.530;2023-08-20T13:52:38;28.60;48.82
73133;DHT22;61320;52.008;4.530;2023-08-20T13:55:04;28.66;47.91
73133;DHT22;61320;52.008;4.530;2023-08-20T13:57:30;28.66;47.54
73133;DHT22;61320;52.008;4.530;2023-08-20T13:59:55;28.66;48.78
73133;DHT22;61320;52.008;4.530;2023-08-20T14:02:21;28.69;49.43
73133;DHT22;61320;52.008;4.530;2023-08-20T14:04:47;28.76;49.19
73133;DHT22;61320;52.008;4.530;2023-08-20T14:07:12;28.79;47.14
73133;DHT22;61320;52.008;4.530;2023-08-20T14:09:38;28.80;47.97
73133;DHT22;61320;52.008;4.530;2023-08-20T14:12:05;28.82;49.30
73133;DHT22;61320;52.008;4.530;2023-08-20T14:14:31;28.84;48.22
73133;DHT22;61320;52.008;4.530;2023-08-20T14:16:56;28.87;48.32
73133;DHT22;61320;52.008;4.530;2023-08-20T14:19:22;28.87;47.46
73133;DHT22;61320;52.008;4.530;2023-08-20T14:21:48;28.89;46.95
73133;DHT22;61320;52.008;4.530;2023-08-20T14:24:13;28.90;46.86
73133;DHT22;61320;52.008;4.530;2023-08-20T14:26:39;28.90;47.25
73133;DHT22;61320;52.008;4.530;2023-08-20T14:29:04;28.89;47.51
73133;DHT22;61320;52.008;4.530;2023-08-20T14:31:30;28.89;47.73
73133;DHT22;61320;52.008;4.530;2023-08-20T14:33:56;28.90;47.66
73133;DHT22;61320;52.008;4.530;2023-08-20T14:36:22;28.90;47.51
73133;DHT22;61320;52.008;4.530;2023-08-20T14:38:47;28.84;48.15
73133;DHT22;61320;52.008;4.530;2023-08-20T14:41:13;28.84;46.28
73133;DHT22;61320;52.008;4.530;2023-08-20T14:43:39;28.82;47.63
73133;DHT22;61320;52.008;4.530;2023-08-20T14:46:04;28.76;47.12
73133;DHT22;61320;52.008;4.530;2023-08-20T14:48:30;28.73;47.50
73133;DHT22;61320;52.008;4.530;2023-08-20T14:50:55;28.73;48.66
73133;DHT22;61320;52.008;4.530;2023-08-20T14:53:21;28.67;46.80
73133;DHT22;61320;52.008;4.530;2023-08-20T14:55:46;28.62;46.05
73133;DHT22;61320;52.008;4.530;2023-08-20T14:58:12;28.62;47.52
73133;DHT22;61320;52.008;4.530;2023-08-20T15:00:38;28.57;46.55
73133;DHT22;61320;52.008;4.530;2023-08-20T15:05:29;28.35;47.54
73133;DHT22;61320;52.008;4.530;2023-08-20T15:07:56;28.35;47.76
73133;DHT22;61320;52.008;4.530;2023-08-20T15:10:21;28.26;46.40
73133;DHT22;61320;52.008;4.530;2023-08-20T15:12:47;28.22;46.83
73133;DHT22;61320;52.008;4.530;2023-08-20T15:15:12;28.19;46.38
73133;DHT22;61320;52.008;4.530;2023-08-20T15:17:38;28.24;47.18
73133;DHT22;61320;52.008;4.530;2023-08-20T15:20:04;28.28;47.00
73133;DHT22;61320;52.008;4.530;2023-08-20T15:22:31;28.32;47.15
73133;DHT22;61320;52.008;4.530;2023-08-20T15:24:56;28.36;47.55
73133;DHT22;61320;52.008;4.530;2023-08-20T15:27:24;28.36;47.07
73133;DHT22;61320;52.008;4.530;2023-08-20T15:29:51;28.24;43.90
73133;DHT22;61320;52.008;4.530;2023-08-20T15:32:16;28.14;46.11
73133;DHT22;61320;52.008;4.530;2023-08-20T15:34:42;28.07;45.81
73133;DHT22;61320;52.008;4.530;2023-08-20T15:37:07;27.97;46.14
73133;DHT22;61320;52.008;4.530;2023-08-20T15:39:33;27.83;46.62
73133;DHT22;61320;52.008;4.530;2023-08-20T15:42:00;27.81;47.46
73133;DHT22;61320;52.008;4.530;2023-08-20T15:44:26;27.81;46.70
73133;DHT22;61320;52.008;4.530;2023-08-20T15:46:51;27.80;46.78
73133;DHT22;61320;52.008;4.530;2023-08-20T15:49:16;27.76;47.63
73133;DHT22;61320;52.008;4.530;2023-08-20T15:51:42;27.74;46.99
73133;DHT22;61320;52.008;4.530;2023-08-20T15:54:08;27.67;47.20
73133;DHT22;61320;52.008;4.530;2023-08-20T15:56:37;27.61;47.16
73133;DHT22;61320;52.008;4.530;2023-08-20T15:59:03;27.56;46.96
73133;DHT22;61320;52.008;4.530;2023-08-20T16:01:28;27.54;47.41
73133;DHT22;61320;52.008;4.530;2023-08-20T16:03:54;27.47;47.98
73133;DHT22;61320;52.008;4.530;2023-08-20T16:06:20;27.40;47.44